Time;durP1;ratioP1;P1;durP2;ratioP2;P2;SDS_P1;SDS_P2;PMS_P1;PMS_P2;Temp;Humidity;BMP_temperature;BMP_pressure;BME280_temperature;BME280_humidity;BME280_pressure;Samples;Min_cycle;Max_cycle;Signal;HPM_P1;HPM_P2
2022/07/30 14:25:53;;;;;;;7.38;2.10;;;24.00;69.40;;;;;;5496895;22;20132;-72
2022/07/30 14:28:19;;;;;;;7.60;2.58;;;24.10;69.90;;;;;;5041090;28;20035;-73
2022/07/30 14:30:44;;;;;;;5.60;2.30;;;24.60;71.90;;;;;;5063929;28;20433;-74
2022/07/30 14:33:09;;;;;;;5.82;1.98;;;24.40;70.70;;;;;;5060453;28;20029;-74
2022/07/30 14:35:35;;;;;;;4.40;2.25;;;25.40;70.20;;;;;;5069586;28;20027;-74
2022/07/30 14:38:02;;;;;;;3.60;1.58;;;24.50;69.90;;;;;;5062983;28;20025;-75
2022/07/30 14:40:27;;;;;;;4.07;1.85;;;24.50;71.00;;;;;;5048850;28;20423;-75
2022/07/30 14:42:53;;;;;;;2.15;1.65;;;24.50;71.20;;;;;;5064991;28;20025;-75
2022/07/30 14:45:18;;;;;;;2.20;1.63;;;24.50;70.10;;;;;;5033773;28;20038;-74
2022/07/30 14:47:44;;;;;;;2.75;1.48;;;24.60;68.90;;;;;;5065491;28;20080;-74
2022/07/30 14:50:09;;;;;;;2.67;1.80;;;24.70;68.10;;;;;;5068887;28;20168;-73
2022/07/30 14:52:37;;;;;;;3.85;1.58;;;24.70;68.30;;;;;;5048418;28;20025;-73
2022/07/30 14:55:06;;;;;;;3.10;2.00;;;24.70;68.70;;;;;;5049905;28;20038;-73
2022/07/30 14:57:32;;;;;;;7.03;1.92;;;24.80;69.10;;;;;;5040217;28;20033;-72
2022/07/30 14:59:57;;;;;;;4.00;1.77;;;24.80;69.50;;;;;;5049441;28;20020;-73
2022/07/30 15:02:23;;;;;;;19.90;2.55;;;25.70;69.60;;;;;;5052171;28;20071;-74
2022/07/30 16:29:34;;;;;;;3.78;1.85;;;24.80;65.30;;;;;;5050717;28;20056;-74
2022/07/30 16:31:59;;;;;;;2.85;1.63;;;25.40;66.50;;;;;;5052627;28;20374;-73
2022/07/30 16:34:25;;;;;;;2.72;1.85;;;24.80;65.70;;;;;;5034645;28;20029;-72
2022/07/30 16:36:51;;;;;;;3.55;2.20;;;24.90;66.10;;;;;;5052358;28;20036;-73
2022/07/30 16:39:23;;;;;;;2.78;2.15;;;24.90;66.90;;;;;;5016781;28;20519;-73
2022/07/30 16:41:48;;;;;;;3.45;2.03;;;24.90;66.80;;;;;;5052696;28;20041;-72
2022/07/30 16:44:13;;;;;;;2.00;1.80;;;24.90;66.00;;;;;;5051124;28;20420;-72
2022/07/30 16:53:48;;;;;;;3.80;2.15;;;24.70;67.60;;;;;;5039965;28;20036;-80
2022/07/30 16:56:14;;;;;;;13.65;4.30;;;25.20;69.20;;;;;;5052695;28;20029;-81
2022/07/30 16:58:40;;;;;;;34.08;7.03;;;26.10;74.70;;;;;;5002203;28;20040;-80
2022/07/30 17:01:07;;;;;;;32.65;8.00;;;25.70;87.90;;;;;;5035088;28;20021;-79
2022/07/30 17:03:35;;;;;;;66.80;11.18;;;25.40;93.60;;;;;;5035163;28;20028;-83
2022/07/30 17:06:16;;;;;;;48.22;9.27;;;26.60;98.60;;;;;;5044059;28;20132;-85
2022/07/30 17:08:42;;;;;;;12.95;2.75;;;26.00;99.90;;;;;;5052457;28;20041;-76
2022/07/30 17:11:07;;;;;;;6.32;2.53;;;26.40;80.00;;;;;;5034588;28;20074;-74
2022/07/30 17:13:33;;;;;;;3.85;2.25;;;25.20;78.00;;;;;;5052252;28;20508;-74
2022/07/30 17:15:59;;;;;;;3.55;2.03;;;25.20;78.30;;;;;;5051898;28;20021;-74
2022/07/30 17:32:26;;;;;;;8.60;2.88;;;24.90;87.40;;;;;;5075569;28;20056;-84
2022/07/30 18:08:49;;;;;;;2.45;1.95;;;24.50;79.00;;;;;;5027236;28;20489;-75
2022/07/30 18:11:15;;;;;;;3.15;1.80;;;25.10;77.20;;;;;;5031000;28;20148;-76
2022/07/30 18:13:40;;;;;;;6.80;2.55;;;24.50;76.70;;;;;;5031800;28;20358;-72
2022/07/30 18:16:10;;;;;;;4.63;2.35;;;24.40;76.30;;;;;;5033302;28;20480;-72
2022/07/30 18:18:36;;;;;;;5.53;2.10;;;24.40;75.70;;;;;;5034249;28;20037;-72
2022/07/30 18:21:01;;;;;;;2.58;1.83;;;24.50;76.80;;;;;;5035007;28;20033;-72
2022/07/30 18:23:27;;;;;;;4.28;2.45;;;24.20;76.00;;;;;;5035397;28;20544;-72
2022/07/30 18:25:52;;;;;;;4.82;2.17;;;24.30;78.50;;;;;;5033681;28;20021;-73
2022/07/30 18:28:18;;;;;;;3.05;2.30;;;24.30;81.70;;;;;;5031500;28;20037;-73
2022/07/30 18:34:05;;;;;;;5.00;2.08;;;24.30;76.20;;;;;;5036524;28;20402;-77
2022/07/30 18:36:30;;;;;;;2.78;1.90;;;24.50;78.00;;;;;;5034217;28;20022;-73
2022/07/30 18:39:34;;;;;;;4.82;2.13;;;24.30;76.90;;;;;;5032813;28;20079;-73
2022/07/30 18:42:00;;;;;;;4.72;2.08;;;24.20;77.00;;;;;;5005709;28;20492;-72
2022/07/30 18:44:26;;;;;;;5.10;2.17;;;24.20;77.80;;;;;;5034394;28;20028;-72
2022/07/30 18:57:14;;;;;;;3.65;2.10;;;24.30;78.00;;;;;;5058156;28;20041;-73
2022/07/30 18:59:40;;;;;;;4.57;2.15;;;24.20;79.70;;;;;;5036629;28;20592;-73
2022/07/30 19:02:08;;;;;;;3.95;2.00;;;24.20;80.00;;;;;;5035563;28;20021;-73
2022/07/30 19:04:33;;;;;;;4.25;2.30;;;24.80;78.60;;;;;;5054407;28;20029;-73
